createdAt,value
2022-11-16T00:01:41.664Z,13.80
2022-11-16T00:04:13.348Z,14.50
2022-11-16T00:06:44.036Z,11.50
2022-11-16T00:09:23.986Z,13.60
2022-11-16T00:11:56.034Z,11.70
2022-11-16T00:14:29.162Z,11.80
2022-11-16T00:16:59.912Z,11.20
2022-11-16T00:19:33.589Z,10.40
2022-11-16T00:24:33.400Z,11.20
2022-11-16T00:27:04.067Z,12.20
2022-11-16T00:29:35.014Z,13.20
2022-11-16T00:32:05.945Z,11.50
2022-11-16T00:34:36.583Z,11.30
2022-11-16T00:37:07.216Z,11.10
2022-11-16T00:39:37.805Z,11.90
2022-11-16T00:42:08.584Z,11.60
2022-11-16T00:44:39.244Z,10.20
2022-11-16T00:47:09.834Z,12.70
2022-11-16T00:49:40.484Z,11.80
2022-11-16T00:52:11.135Z,11.50
2022-11-16T00:54:41.881Z,11.50
2022-11-16T00:57:12.504Z,13.30
2022-11-16T00:59:43.214Z,11.70
2022-11-16T01:02:13.840Z,11.60
2022-11-16T01:04:44.460Z,13.10
2022-11-16T01:07:15.077Z,11.40
2022-11-16T01:09:45.783Z,10.40
2022-11-16T01:12:17.335Z,11.50
2022-11-16T01:14:49.748Z,11.50
2022-11-16T01:17:20.330Z,9.90
2022-11-16T01:19:50.928Z,13.00
2022-11-16T01:22:22.646Z,10.40
2022-11-16T01:24:53.260Z,10.10
2022-11-16T01:27:23.843Z,12.70
2022-11-16T01:29:54.550Z,12.10
2022-11-16T01:32:25.597Z,12.30
2022-11-16T01:34:56.210Z,11.40
2022-11-16T01:37:27.140Z,12.60
2022-11-16T01:39:57.919Z,11.50
2022-11-16T01:42:30.160Z,10.80
2022-11-16T01:45:08.816Z,12.20
2022-11-16T01:47:39.411Z,9.70
2022-11-16T01:50:14.788Z,10.60
2022-11-16T01:52:52.884Z,11.00
2022-11-16T01:55:26.436Z,12.00
2022-11-16T01:57:58.154Z,9.80
2022-11-16T02:00:28.884Z,10.60
2022-11-16T02:02:59.480Z,11.30
2022-11-16T02:05:38.546Z,12.80
2022-11-16T02:08:41.953Z,11.10
2022-11-16T02:11:50.233Z,10.20
2022-11-16T02:14:32.012Z,11.70
2022-11-16T02:17:08.970Z,10.30
2022-11-16T02:20:01.510Z,10.00
2022-11-16T02:22:54.294Z,10.60
2022-11-16T02:25:35.909Z,10.30
2022-11-16T02:28:29.732Z,9.30
2022-11-16T02:31:06.512Z,9.20
2022-11-16T02:33:42.040Z,8.70
2022-11-16T02:36:16.339Z,10.80
2022-11-16T02:38:52.478Z,12.10
2022-11-16T02:41:25.588Z,11.20
2022-11-16T02:44:02.879Z,10.20
2022-11-16T02:46:37.940Z,10.80
2022-11-16T02:49:12.461Z,10.90
2022-11-16T02:51:44.423Z,10.40
2022-11-16T02:54:19.045Z,11.10
2022-11-16T02:56:55.849Z,12.20
2022-11-16T02:59:31.987Z,10.30
2022-11-16T03:02:14.505Z,10.20
2022-11-16T03:04:48.655Z,9.80
2022-11-16T03:07:25.186Z,10.50
2022-11-16T03:09:59.175Z,9.80
2022-11-16T03:12:36.768Z,10.80
2022-11-16T03:15:12.072Z,9.20
2022-11-16T03:17:46.063Z,10.50
2022-11-16T03:20:22.450Z,10.30
2022-11-16T03:22:56.095Z,9.70
2022-11-16T03:25:31.261Z,9.50
2022-11-16T03:28:08.248Z,10.50
2022-11-16T03:30:43.752Z,12.00
2022-11-16T03:33:20.548Z,9.00
2022-11-16T03:35:58.843Z,10.00
2022-11-16T03:38:31.346Z,9.20
2022-11-16T03:41:06.918Z,11.60
2022-11-16T03:43:39.338Z,10.80
2022-11-16T03:46:10.206Z,10.30
2022-11-16T03:48:41.553Z,11.10
2022-11-16T03:51:13.632Z,10.70
2022-11-16T03:53:44.359Z,10.30
2022-11-16T03:56:15.010Z,10.70
2022-11-16T03:58:45.635Z,11.00
2022-11-16T04:01:16.515Z,10.20
2022-11-16T04:03:47.090Z,10.70
2022-11-16T04:06:36.174Z,10.10
2022-11-16T04:09:24.718Z,10.40
2022-11-16T04:12:13.250Z,9.30
2022-11-16T04:15:02.059Z,10.20
2022-11-16T04:17:50.216Z,10.30
2022-11-16T04:20:38.886Z,10.70
2022-11-16T04:23:33.470Z,8.90
2022-11-16T04:26:04.212Z,10.10
2022-11-16T04:28:37.149Z,12.00
2022-11-16T04:31:26.491Z,9.90
2022-11-16T04:34:14.728Z,9.90
2022-11-16T04:37:02.411Z,9.80
2022-11-16T04:39:33.022Z,9.00
2022-11-16T04:42:15.646Z,12.30
2022-11-16T04:45:03.887Z,11.30
2022-11-16T04:47:34.510Z,10.00
2022-11-16T04:50:05.553Z,10.70
2022-11-16T04:52:36.213Z,10.40
2022-11-16T04:55:08.278Z,10.00
2022-11-16T04:57:38.993Z,11.30
2022-11-16T05:00:12.293Z,11.10
2022-11-16T05:02:43.245Z,10.80
2022-11-16T05:05:14.604Z,9.20
2022-11-16T05:07:45.891Z,10.70
2022-11-16T05:10:17.105Z,9.80
2022-11-16T05:12:47.890Z,10.60
2022-11-16T05:15:19.935Z,9.40
2022-11-16T05:17:54.945Z,21.00
2022-11-16T05:20:46.538Z,28.50
2022-11-16T05:23:35.000Z,27.60
2022-11-16T05:26:09.220Z,22.30
2022-11-16T05:28:41.651Z,19.50
2022-11-16T05:31:13.985Z,16.00
2022-11-16T05:33:53.552Z,25.80
2022-11-16T05:36:26.041Z,19.60
2022-11-16T05:38:57.077Z,21.70
2022-11-16T05:41:30.836Z,21.60
2022-11-16T05:46:31.436Z,17.30
2022-11-16T05:49:07.238Z,14.00
2022-11-16T05:51:39.715Z,15.80
2022-11-16T05:54:12.812Z,17.90
2022-11-16T05:56:44.168Z,12.40
2022-11-16T05:59:17.415Z,17.50
2022-11-16T06:01:49.381Z,12.20
2022-11-16T06:04:24.475Z,13.70
2022-11-16T06:06:55.826Z,15.90
2022-11-16T06:09:28.723Z,15.90
2022-11-16T06:11:59.440Z,15.10
2022-11-16T06:14:30.077Z,10.60
2022-11-16T06:17:00.913Z,13.20
2022-11-16T06:19:32.848Z,10.60
2022-11-16T06:22:03.821Z,11.50
2022-11-16T06:24:34.792Z,10.50
2022-11-16T06:27:05.499Z,11.30
2022-11-16T06:29:36.342Z,10.90
2022-11-16T06:32:07.656Z,9.40
2022-11-16T06:34:38.255Z,9.50
2022-11-16T06:37:08.965Z,10.70
2022-11-16T06:39:39.785Z,11.80
2022-11-16T06:42:10.461Z,11.30
2022-11-16T06:44:41.244Z,10.80
2022-11-16T06:47:11.910Z,8.50
2022-11-16T06:49:42.960Z,9.10
2022-11-16T06:52:13.732Z,9.10
2022-11-16T06:54:44.528Z,9.70
2022-11-16T06:57:15.275Z,9.50
2022-11-16T06:59:46.114Z,7.30
2022-11-16T07:02:17.592Z,8.50
2022-11-16T07:04:48.222Z,8.20
2022-11-16T07:07:19.619Z,8.50
2022-11-16T07:09:50.804Z,6.80
2022-11-16T07:12:21.484Z,8.40
2022-11-16T07:14:52.117Z,7.30
2022-11-16T07:17:23.055Z,6.80
2022-11-16T07:19:54.673Z,9.80
2022-11-16T07:22:28.221Z,7.20
2022-11-16T07:24:58.886Z,7.40
2022-11-16T07:27:30.605Z,7.00
2022-11-16T07:30:02.254Z,7.50
2022-11-16T07:32:33.276Z,8.00
2022-11-16T07:35:04.027Z,6.30
2022-11-16T07:37:34.833Z,5.80
2022-11-16T07:40:06.281Z,7.10
2022-11-16T07:42:37.250Z,7.60
2022-11-16T07:45:09.903Z,6.20
2022-11-16T07:47:41.064Z,6.40
2022-11-16T07:50:12.634Z,6.20
2022-11-16T07:52:46.559Z,7.40
2022-11-16T07:55:17.413Z,6.60
2022-11-16T07:57:53.062Z,5.60
2022-11-16T08:00:24.628Z,5.60
2022-11-16T08:02:56.879Z,6.30
2022-11-16T08:05:27.706Z,6.80
2022-11-16T08:07:58.459Z,6.70
2022-11-16T08:10:31.069Z,5.80
2022-11-16T08:13:02.170Z,8.20
2022-11-16T08:15:33.044Z,5.90
2022-11-16T08:18:03.686Z,7.10
2022-11-16T08:20:35.016Z,6.00
2022-11-16T08:23:05.665Z,6.00
2022-11-16T08:25:36.369Z,5.90
2022-11-16T08:28:07.482Z,6.00
2022-11-16T08:30:39.483Z,5.30
2022-11-16T08:33:11.345Z,5.10
2022-11-16T08:35:42.033Z,5.00
2022-11-16T08:38:12.658Z,5.60
2022-11-16T08:40:43.565Z,5.40
2022-11-16T08:43:14.384Z,7.50
2022-11-16T08:45:50.551Z,4.90
2022-11-16T08:48:21.285Z,4.60
2022-11-16T08:51:15.851Z,5.80
2022-11-16T08:53:42.832Z,6.10
2022-11-16T08:56:14.668Z,4.50
2022-11-16T08:58:47.235Z,4.50
2022-11-16T09:01:20.590Z,6.00
2022-11-16T09:03:51.332Z,4.80
2022-11-16T09:06:22.319Z,5.50
2022-11-16T09:08:53.603Z,5.30
2022-11-16T09:11:26.367Z,6.40
2022-11-16T09:13:59.120Z,4.60
2022-11-16T09:16:30.011Z,5.60
2022-11-16T09:19:00.865Z,4.80
2022-11-16T09:21:32.408Z,5.70
2022-11-16T09:24:03.072Z,5.50
2022-11-16T09:26:33.859Z,4.50
2022-11-16T09:29:04.724Z,4.50
2022-11-16T09:31:37.609Z,4.50
2022-11-16T09:34:08.790Z,5.10
2022-11-16T09:36:39.595Z,4.30
2022-11-16T09:42:16.463Z,4.70
2022-11-16T09:45:04.601Z,4.60
2022-11-16T09:47:45.447Z,5.20
2022-11-16T09:50:28.102Z,6.10
2022-11-16T09:53:07.353Z,4.30
2022-11-16T09:55:44.611Z,4.50
2022-11-16T09:58:21.187Z,4.30
2022-11-16T10:00:57.634Z,4.30
2022-11-16T10:03:31.837Z,4.70
2022-11-16T10:06:07.255Z,4.10
2022-11-16T10:08:45.103Z,4.60
2022-11-16T10:11:44.814Z,4.40
2022-11-16T10:14:35.660Z,4.80
2022-11-16T10:17:18.875Z,4.90
2022-11-16T10:19:55.181Z,4.60
2022-11-16T10:22:41.522Z,4.80
2022-11-16T10:25:20.595Z,4.50
2022-11-16T10:28:06.002Z,4.10
2022-11-16T10:30:44.803Z,4.50
2022-11-16T10:33:19.779Z,4.10
2022-11-16T10:35:54.120Z,4.80
2022-11-16T10:38:30.527Z,4.70
2022-11-16T10:41:14.383Z,4.50
2022-11-16T10:43:46.734Z,4.30
2022-11-16T10:46:24.132Z,3.90
2022-11-16T10:49:06.123Z,4.10
2022-11-16T10:51:37.977Z,6.10
2022-11-16T10:54:17.013Z,4.30
2022-11-16T10:56:50.840Z,5.30
2022-11-16T10:59:22.939Z,3.90
2022-11-16T11:01:54.801Z,3.80
2022-11-16T11:04:27.403Z,4.40
2022-11-16T11:06:59.603Z,5.90
2022-11-16T11:09:32.732Z,4.50
2022-11-16T11:12:23.799Z,3.90
2022-11-16T11:15:08.209Z,3.90
2022-11-16T11:17:41.078Z,5.10
2022-11-16T11:20:24.225Z,3.80
2022-11-16T11:22:58.885Z,4.10
2022-11-16T11:25:32.420Z,4.20
2022-11-16T11:28:16.673Z,4.10
2022-11-16T11:31:04.450Z,4.20
2022-11-16T11:33:37.910Z,4.50
2022-11-16T11:36:14.156Z,4.30
2022-11-16T11:39:00.311Z,4.10
2022-11-16T11:41:36.402Z,3.50
2022-11-16T11:44:16.196Z,3.40
2022-11-16T11:49:50.174Z,3.30
2022-11-16T11:52:26.400Z,4.10
2022-11-16T11:54:58.484Z,4.90
2022-11-16T11:57:29.302Z,4.00
2022-11-16T11:59:59.917Z,3.70
2022-11-16T12:02:49.240Z,3.50
2022-11-16T12:05:47.064Z,3.90
2022-11-16T12:08:34.028Z,3.30
2022-11-16T12:11:14.430Z,3.50
2022-11-16T12:14:11.071Z,3.30
2022-11-16T12:16:53.833Z,3.60
2022-11-16T12:19:57.394Z,3.10
2022-11-16T12:22:45.068Z,3.00
2022-11-16T12:25:25.164Z,3.50
2022-11-16T12:28:12.279Z,3.30
2022-11-16T12:30:56.679Z,3.70
2022-11-16T12:33:38.592Z,3.30
2022-11-16T12:36:20.873Z,3.60
2022-11-16T12:39:06.145Z,3.90
2022-11-16T12:41:55.598Z,3.30
2022-11-16T12:44:38.011Z,3.90
2022-11-16T12:47:18.931Z,3.40
2022-11-16T12:50:04.527Z,3.60
2022-11-16T12:52:59.147Z,3.00
2022-11-16T12:55:40.272Z,3.80
2022-11-16T12:58:27.386Z,4.40
2022-11-16T13:01:09.905Z,5.80
2022-11-16T13:03:47.107Z,3.90
2022-11-16T13:06:21.333Z,3.30
2022-11-16T13:09:00.269Z,3.00
2022-11-16T13:11:36.772Z,5.00
2022-11-16T13:14:14.683Z,5.20
2022-11-16T13:16:46.772Z,3.90
2022-11-16T13:19:19.601Z,5.10
2022-11-16T13:21:57.039Z,3.60
2022-11-16T13:24:45.201Z,6.70
2022-11-16T13:27:26.312Z,4.90
2022-11-16T13:30:02.250Z,5.00
2022-11-16T13:32:46.399Z,3.40
2022-11-16T13:35:20.980Z,4.30
2022-11-16T13:37:52.867Z,3.70
2022-11-16T13:40:31.835Z,4.50
2022-11-16T13:43:15.565Z,3.60
2022-11-16T13:45:57.064Z,5.00
2022-11-16T13:48:33.567Z,5.40
2022-11-16T13:51:07.208Z,3.40
2022-11-16T13:54:42.765Z,5.20
2022-11-16T13:56:50.735Z,5.70
2022-11-16T13:59:27.598Z,5.50
2022-11-16T14:02:01.746Z,3.20
2022-11-16T14:04:59.387Z,5.50
2022-11-16T14:07:45.296Z,3.80
2022-11-16T14:10:53.336Z,4.00
2022-11-16T14:13:45.651Z,3.30
2022-11-16T14:16:44.133Z,4.40
2022-11-16T14:19:47.602Z,3.30
2022-11-16T14:22:41.082Z,3.50
2022-11-16T14:25:25.086Z,2.80
2022-11-16T14:28:08.506Z,3.20
2022-11-16T14:30:52.416Z,4.30
2022-11-16T14:33:33.657Z,2.70
2022-11-16T14:36:07.297Z,3.20
2022-11-16T14:38:40.241Z,3.90
2022-11-16T14:41:21.668Z,3.30
2022-11-16T14:43:56.179Z,3.70
2022-11-16T14:46:30.926Z,3.60
2022-11-16T14:49:04.617Z,4.40
2022-11-16T14:54:14.342Z,3.90
2022-11-16T14:57:00.170Z,4.60
2022-11-16T15:02:06.785Z,4.60
2022-11-16T15:04:39.939Z,3.60
2022-11-16T15:07:13.065Z,3.40
2022-11-16T15:09:47.750Z,4.40
2022-11-16T15:12:38.041Z,2.90
2022-11-16T15:15:14.954Z,2.80
2022-11-16T15:17:48.288Z,3.40
2022-11-16T15:20:21.798Z,3.10
2022-11-16T15:22:55.337Z,3.30
2022-11-16T15:25:38.408Z,4.10
2022-11-16T15:28:17.281Z,3.90
2022-11-16T15:30:50.789Z,3.80
2022-11-16T15:33:28.713Z,3.60
2022-11-16T15:36:00.913Z,3.20
2022-11-16T15:38:34.613Z,3.70
2022-11-16T15:43:45.424Z,4.20
2022-11-16T15:46:21.394Z,4.40
2022-11-16T15:48:53.351Z,3.10
2022-11-16T15:51:27.664Z,3.50
2022-11-16T15:54:15.924Z,2.80
2022-11-16T15:56:46.958Z,2.60
2022-11-16T15:59:31.659Z,2.60
2022-11-16T16:02:02.620Z,2.80
2022-11-16T16:04:33.733Z,3.50
2022-11-16T16:07:04.798Z,3.90
2022-11-16T16:09:38.770Z,2.80
2022-11-16T16:12:21.531Z,2.60
2022-11-16T16:14:53.442Z,4.20
2022-11-16T16:17:28.833Z,3.70
2022-11-16T16:20:02.054Z,3.90
2022-11-16T16:22:34.663Z,3.50
2022-11-16T16:25:07.571Z,4.00
2022-11-16T16:27:42.007Z,5.40
2022-11-16T16:30:19.104Z,4.70
2022-11-16T16:32:53.089Z,4.20
2022-11-16T16:35:25.625Z,19.90
2022-11-16T16:38:01.926Z,17.60
2022-11-16T16:40:33.008Z,19.90
2022-11-16T16:43:04.383Z,21.10
2022-11-16T16:45:38.890Z,15.10
2022-11-16T16:48:11.866Z,15.80
2022-11-16T16:50:42.648Z,17.80
2022-11-16T16:53:15.725Z,16.30
2022-11-16T16:55:47.544Z,15.30
2022-11-16T16:58:18.638Z,16.00
2022-11-16T17:00:49.745Z,15.40
2022-11-16T17:03:20.832Z,16.00
2022-11-16T17:05:53.453Z,17.70
2022-11-16T17:08:24.355Z,15.40
2022-11-16T17:10:55.812Z,16.30
2022-11-16T17:13:26.799Z,16.40
2022-11-16T17:15:57.635Z,15.40
2022-11-16T17:18:28.528Z,15.20
2022-11-16T17:21:06.574Z,11.70
2022-11-16T17:23:38.208Z,15.80
2022-11-16T17:26:10.261Z,12.60
2022-11-16T17:28:41.101Z,15.10
2022-11-16T17:31:13.513Z,13.30
2022-11-16T17:33:45.498Z,11.10
2022-11-16T17:36:16.420Z,13.50
2022-11-16T17:38:47.683Z,11.90
2022-11-16T17:41:21.621Z,11.30
2022-11-16T17:43:55.465Z,12.20
2022-11-16T17:46:27.018Z,11.10
2022-11-16T17:48:58.164Z,13.80
2022-11-16T17:51:29.943Z,14.60
2022-11-16T17:54:01.350Z,13.20
2022-11-16T17:56:32.671Z,10.70
2022-11-16T17:59:03.986Z,11.50
2022-11-16T18:01:35.138Z,11.90
2022-11-16T18:04:06.378Z,10.40
2022-11-16T18:06:37.799Z,9.80
2022-11-16T18:09:09.076Z,11.10
2022-11-16T18:11:40.369Z,10.10
2022-11-16T18:14:11.481Z,11.80
2022-11-16T18:16:43.614Z,9.90
2022-11-16T18:19:19.867Z,9.30
2022-11-16T18:21:50.967Z,9.00
2022-11-16T18:24:21.863Z,10.80
2022-11-16T18:26:53.153Z,11.60
2022-11-16T18:29:24.239Z,11.10
2022-11-16T18:31:55.201Z,8.80
2022-11-16T18:34:26.168Z,9.20
2022-11-16T18:36:57.119Z,8.80
2022-11-16T18:39:28.199Z,9.00
2022-11-16T18:41:59.123Z,11.40
2022-11-16T18:44:30.257Z,9.00
2022-11-16T18:47:03.250Z,9.90
2022-11-16T18:49:34.262Z,8.30
2022-11-16T18:52:05.398Z,10.90
2022-11-16T18:54:36.108Z,9.20
2022-11-16T18:57:07.012Z,8.30
2022-11-16T18:59:38.266Z,8.60
2022-11-16T19:02:11.699Z,9.00
2022-11-16T19:04:42.920Z,8.30
2022-11-16T19:07:14.488Z,8.80
2022-11-16T19:09:45.413Z,9.10
2022-11-16T19:12:16.147Z,8.20
2022-11-16T19:14:46.990Z,7.40
2022-11-16T19:17:19.060Z,8.10
2022-11-16T19:19:50.049Z,9.10
2022-11-16T19:22:21.046Z,9.30
2022-11-16T19:24:53.656Z,7.70
2022-11-16T19:27:25.437Z,6.80
2022-11-16T19:29:56.327Z,7.40
2022-11-16T19:32:27.920Z,7.60
2022-11-16T19:34:58.828Z,8.20
2022-11-16T19:37:29.668Z,8.10
2022-11-16T19:40:02.890Z,7.80
2022-11-16T19:42:33.832Z,6.90
2022-11-16T19:45:04.856Z,6.90
2022-11-16T19:47:35.866Z,7.40
2022-11-16T19:50:10.046Z,8.00
2022-11-16T19:52:41.871Z,6.70
2022-11-16T19:55:13.493Z,6.60
2022-11-16T19:57:44.369Z,8.80
2022-11-16T20:00:17.626Z,6.90
2022-11-16T20:02:48.506Z,5.50
2022-11-16T20:05:19.577Z,6.50
2022-11-16T20:07:51.151Z,7.50
2022-11-16T20:10:22.258Z,6.00
2022-11-16T20:12:53.105Z,6.20
2022-11-16T20:15:25.563Z,6.20
2022-11-16T20:17:58.468Z,6.30
2022-11-16T20:20:29.333Z,8.00
2022-11-16T20:23:00.492Z,6.30
2022-11-16T20:25:31.542Z,6.20
2022-11-16T20:28:02.540Z,6.30
2022-11-16T20:30:33.479Z,5.80
2022-11-16T20:33:04.400Z,6.90
2022-11-16T20:35:35.879Z,7.00
2022-11-16T20:38:07.024Z,5.90
2022-11-16T20:40:37.762Z,6.20
2022-11-16T20:43:09.223Z,6.00
2022-11-16T20:45:40.020Z,5.90
2022-11-16T20:48:10.957Z,6.40
2022-11-16T20:50:41.837Z,6.10
2022-11-16T20:53:12.721Z,7.80
2022-11-16T20:55:45.975Z,6.00
2022-11-16T20:58:22.401Z,6.80
2022-11-16T21:00:54.184Z,6.60
2022-11-16T21:03:25.966Z,5.60
2022-11-16T21:05:57.244Z,6.00
2022-11-16T21:08:29.757Z,5.90
2022-11-16T21:11:00.532Z,7.10
2022-11-16T21:13:49.179Z,4.80
2022-11-16T21:16:20.023Z,6.20
2022-11-16T21:18:51.014Z,5.40
2022-11-16T21:21:25.265Z,4.90
2022-11-16T21:23:56.535Z,5.90
2022-11-16T21:26:29.164Z,6.10
2022-11-16T21:29:02.700Z,5.20
2022-11-16T21:31:35.222Z,6.40
2022-11-16T21:34:07.400Z,6.30
2022-11-16T21:36:38.405Z,6.10
2022-11-16T21:39:09.155Z,6.90
2022-11-16T21:41:39.957Z,5.50
2022-11-16T21:44:10.730Z,7.20
2022-11-16T21:46:41.570Z,5.50
2022-11-16T21:49:12.301Z,7.20
2022-11-16T21:51:43.145Z,5.70
2022-11-16T21:54:14.011Z,6.80
2022-11-16T21:56:44.927Z,5.10
2022-11-16T21:59:15.765Z,6.70
2022-11-16T22:02:01.756Z,7.00
2022-11-16T22:04:50.396Z,5.60
2022-11-16T22:07:37.944Z,5.80
2022-11-16T22:10:11.296Z,6.30
2022-11-16T22:12:42.117Z,5.20
2022-11-16T22:15:13.778Z,5.30
2022-11-16T22:17:46.032Z,4.90
2022-11-16T22:20:17.251Z,5.90
2022-11-16T22:22:48.359Z,6.60
2022-11-16T22:25:19.331Z,6.40
2022-11-16T22:28:20.267Z,4.90
2022-11-16T22:30:43.381Z,4.40
2022-11-16T22:33:14.848Z,5.70
2022-11-16T22:35:47.799Z,5.80
2022-11-16T22:38:18.616Z,5.80
2022-11-16T22:40:53.315Z,5.30
2022-11-16T22:43:25.605Z,4.70
2022-11-16T22:46:00.074Z,6.10
2022-11-16T22:48:35.132Z,5.20
2022-11-16T22:51:08.669Z,5.20
2022-11-16T22:53:39.359Z,5.60
2022-11-16T22:56:12.087Z,5.00
2022-11-16T22:58:42.779Z,4.40
2022-11-16T23:01:13.456Z,5.40
2022-11-16T23:03:44.345Z,4.10
2022-11-16T23:06:15.704Z,5.40
2022-11-16T23:08:46.451Z,4.60
2022-11-16T23:11:36.364Z,4.00
2022-11-16T23:14:26.205Z,3.70
2022-11-16T23:16:57.486Z,6.10
2022-11-16T23:19:46.648Z,4.60
2022-11-16T23:22:37.601Z,4.30
2022-11-16T23:25:44.447Z,4.30
2022-11-16T23:28:17.271Z,4.80
2022-11-16T23:30:48.466Z,3.90
2022-11-16T23:33:39.155Z,4.60
2022-11-16T23:36:11.435Z,4.60
2022-11-16T23:38:42.367Z,4.30
2022-11-16T23:41:30.916Z,4.40
2022-11-16T23:44:01.628Z,4.30
2022-11-16T23:46:34.101Z,4.00
2022-11-16T23:49:04.782Z,5.30
2022-11-16T23:51:35.479Z,4.10
2022-11-16T23:54:07.408Z,4.70
2022-11-16T23:56:38.392Z,3.70
2022-11-16T23:59:09.331Z,4.60
